createdAt,value
2023-04-03T00:00:11.988Z,13.50
2023-04-03T00:01:18.568Z,14.75
2023-04-03T00:02:24.318Z,14.20
2023-04-03T00:03:34.502Z,14.43
2023-04-03T00:04:41.628Z,13.82
2023-04-03T00:05:52.810Z,13.95
2023-04-03T00:06:56.742Z,14.23
2023-04-03T00:08:13.628Z,14.27
2023-04-03T00:09:18.380Z,13.85
2023-04-03T00:10:27.104Z,13.73
2023-04-03T00:11:30.872Z,14.82
2023-04-03T00:12:37.845Z,15.30
2023-04-03T00:13:44.252Z,15.30
2023-04-03T00:14:48.160Z,15.15
2023-04-03T00:15:51.060Z,15.25
2023-04-03T00:17:06.024Z,15.25
2023-04-03T00:18:12.603Z,14.65
2023-04-03T00:19:21.555Z,15.30
2023-04-03T00:20:26.640Z,16.00
2023-04-03T00:21:31.759Z,15.30
2023-04-03T00:22:42.688Z,15.60
2023-04-03T00:23:46.126Z,15.27
2023-04-03T00:24:54.792Z,14.68
2023-04-03T00:26:00.682Z,16.27
2023-04-03T00:27:09.462Z,15.20
2023-04-03T00:28:15.063Z,16.13
2023-04-03T00:29:20.838Z,15.50
2023-04-03T00:30:51.558Z,14.88
2023-04-03T00:31:58.124Z,15.40
2023-04-03T00:33:02.455Z,14.75
2023-04-03T00:34:07.047Z,14.95
2023-04-03T00:35:11.389Z,15.32
2023-04-03T00:36:20.282Z,14.82
2023-04-03T00:37:29.387Z,15.30
2023-04-03T00:38:33.598Z,14.55
2023-04-03T00:39:38.487Z,14.90
2023-04-03T00:40:53.011Z,14.38
2023-04-03T00:42:01.176Z,15.40
2023-04-03T00:43:15.927Z,14.82
2023-04-03T00:44:44.162Z,18.17
2023-04-03T00:45:59.047Z,15.07
2023-04-03T00:47:05.576Z,15.02
2023-04-03T00:48:19.982Z,15.35
2023-04-03T00:49:31.712Z,14.70
2023-04-03T00:50:42.413Z,15.10
2023-04-03T00:51:52.384Z,14.68
2023-04-03T00:52:58.170Z,14.75
2023-04-03T00:54:08.844Z,15.55
2023-04-03T00:55:13.734Z,16.88
2023-04-03T00:56:21.123Z,16.13
2023-04-03T00:57:27.778Z,16.55
2023-04-03T00:58:39.062Z,15.85
2023-04-03T00:59:54.170Z,15.63
2023-04-03T01:01:07.685Z,15.95
2023-04-03T01:02:18.229Z,16.95
2023-04-03T01:03:22.651Z,15.50
2023-04-03T01:04:32.530Z,15.50
2023-04-03T01:05:42.970Z,15.27
2023-04-03T01:06:51.690Z,15.68
2023-04-03T01:07:58.465Z,15.25
2023-04-03T01:09:04.022Z,15.60
2023-04-03T01:10:12.335Z,16.10
2023-04-03T01:11:45.691Z,15.63
2023-04-03T01:12:53.244Z,15.15
2023-04-03T01:13:58.680Z,15.50
2023-04-03T01:15:13.363Z,16.00
2023-04-03T01:16:17.878Z,15.23
2023-04-03T01:17:37.887Z,15.90
2023-04-03T01:18:41.625Z,17.30
2023-04-03T01:20:04.280Z,15.80
2023-04-03T01:21:43.304Z,15.83
2023-04-03T01:23:08.994Z,16.98
2023-04-03T01:24:34.517Z,17.30
2023-04-03T01:25:42.202Z,16.77
2023-04-03T01:26:58.280Z,25.83
2023-04-03T01:28:01.652Z,19.20
2023-04-03T01:29:10.490Z,17.08
2023-04-03T01:30:19.812Z,17.95
2023-04-03T01:32:04.732Z,17.63
2023-04-03T01:33:09.879Z,17.27
2023-04-03T01:34:13.333Z,17.02
2023-04-03T01:35:23.517Z,16.52
2023-04-03T01:36:32.865Z,16.40
2023-04-03T01:37:36.303Z,17.08
2023-04-03T01:38:44.817Z,17.52
2023-04-03T01:39:49.244Z,18.45
2023-04-03T01:40:52.006Z,17.92
2023-04-03T01:41:55.922Z,17.95
2023-04-03T01:43:06.545Z,17.75
2023-04-03T01:44:13.234Z,19.17
2023-04-03T01:45:19.625Z,18.50
2023-04-03T01:46:29.244Z,17.88
2023-04-03T01:48:23.706Z,17.92
2023-04-03T01:49:29.082Z,18.98
2023-04-03T01:50:33.587Z,19.42
2023-04-03T01:51:39.337Z,18.88
2023-04-03T01:52:42.665Z,20.08
2023-04-03T01:53:46.364Z,19.38
2023-04-03T01:54:52.726Z,19.30
2023-04-03T01:56:00.672Z,19.08
2023-04-03T01:57:03.892Z,20.93
2023-04-03T01:58:08.396Z,18.67
2023-04-03T01:59:14.818Z,18.42
2023-04-03T02:00:19.372Z,19.15
2023-04-03T02:01:23.654Z,19.27
2023-04-03T02:02:28.966Z,19.85
2023-04-03T02:03:33.488Z,20.33
2023-04-03T02:04:37.625Z,20.17
2023-04-03T02:05:43.822Z,19.88
2023-04-03T02:06:52.612Z,20.02
2023-04-03T02:07:59.009Z,19.95
2023-04-03T02:10:23.700Z,20.17
2023-04-03T02:11:30.239Z,20.05
2023-04-03T02:12:38.505Z,20.13
2023-04-03T02:14:49.058Z,19.75
2023-04-03T02:15:52.452Z,19.80
2023-04-03T02:16:58.098Z,19.65
2023-04-03T02:18:07.776Z,19.85
2023-04-03T02:19:16.482Z,19.77
2023-04-03T02:20:20.852Z,20.60
2023-04-03T02:21:25.593Z,20.58
2023-04-03T02:22:31.380Z,20.88
2023-04-03T02:23:37.799Z,20.95
2023-04-03T02:24:42.841Z,20.52
2023-04-03T02:25:46.156Z,19.98
2023-04-03T02:26:52.326Z,21.13
2023-04-03T02:27:58.435Z,19.20
2023-04-03T02:29:03.159Z,19.52
2023-04-03T02:30:06.990Z,18.90
2023-04-03T02:31:12.541Z,18.33
2023-04-03T02:32:18.268Z,19.38
2023-04-03T02:33:24.862Z,20.83
2023-04-03T02:34:28.999Z,20.27
2023-04-03T02:35:33.965Z,19.27
2023-04-03T02:36:41.407Z,19.33
2023-04-03T02:37:48.945Z,19.27
2023-04-03T02:38:52.127Z,20.08
2023-04-03T02:40:02.316Z,20.10
2023-04-03T02:41:12.179Z,18.92
2023-04-03T02:43:27.131Z,19.10
2023-04-03T02:44:31.935Z,21.83
2023-04-03T02:45:38.346Z,21.60
2023-04-03T02:46:41.257Z,19.95
2023-04-03T02:47:44.774Z,21.60
2023-04-03T02:48:53.807Z,20.08
2023-04-03T02:49:58.680Z,21.05
2023-04-03T02:51:04.652Z,19.85
2023-04-03T02:52:07.811Z,20.52
2023-04-03T02:53:11.860Z,19.75
2023-04-03T02:54:15.013Z,19.33
2023-04-03T02:55:24.603Z,19.17
2023-04-03T02:56:30.098Z,18.42
2023-04-03T02:57:36.700Z,19.77
2023-04-03T02:58:39.903Z,18.20
2023-04-03T02:59:45.789Z,18.55
2023-04-03T03:00:52.107Z,20.20
2023-04-03T03:01:57.116Z,19.67
2023-04-03T03:03:01.086Z,21.60
2023-04-03T03:04:06.754Z,19.88
2023-04-03T03:05:09.912Z,19.50
2023-04-03T03:06:14.852Z,19.13
2023-04-03T03:07:18.004Z,18.98
2023-04-03T03:08:21.780Z,17.98
2023-04-03T03:09:26.617Z,19.15
2023-04-03T03:10:30.135Z,19.88
2023-04-03T03:11:34.266Z,19.15
2023-04-03T03:12:40.765Z,19.05
2023-04-03T03:13:45.448Z,19.33
2023-04-03T03:14:48.436Z,18.95
2023-04-03T03:15:51.702Z,18.92
2023-04-03T03:16:58.949Z,18.48
2023-04-03T03:18:03.454Z,18.08
2023-04-03T03:19:08.034Z,18.23
2023-04-03T03:20:16.936Z,17.67
2023-04-03T03:21:20.915Z,18.52
2023-04-03T03:22:36.400Z,17.38
2023-04-03T03:23:42.951Z,17.13
2023-04-03T03:24:47.378Z,18.23
2023-04-03T03:25:57.606Z,18.08
2023-04-03T03:27:01.509Z,19.33
2023-04-03T03:28:15.964Z,18.35
2023-04-03T03:29:22.517Z,19.75
2023-04-03T03:30:25.671Z,20.05
2023-04-03T03:31:29.526Z,20.13
2023-04-03T03:32:35.723Z,19.70
2023-04-03T03:33:38.561Z,19.50
2023-04-03T03:34:41.685Z,18.75
2023-04-03T03:35:46.346Z,19.17
2023-04-03T03:36:50.789Z,19.17
2023-04-03T03:37:56.843Z,19.60
2023-04-03T03:39:00.233Z,18.23
2023-04-03T03:40:04.255Z,17.02
2023-04-03T03:41:12.474Z,16.95
2023-04-03T03:42:16.969Z,17.35
2023-04-03T03:43:21.375Z,18.00
2023-04-03T03:44:27.522Z,17.95
2023-04-03T03:45:35.816Z,17.10
2023-04-03T03:46:39.080Z,17.25
2023-04-03T03:47:43.432Z,17.20
2023-04-03T03:48:48.888Z,16.85
2023-04-03T03:49:56.375Z,17.25
2023-04-03T03:51:06.777Z,16.00
2023-04-03T03:52:16.704Z,16.45
2023-04-03T03:53:23.331Z,17.73
2023-04-03T03:54:30.798Z,16.00
2023-04-03T03:55:36.893Z,16.58
2023-04-03T03:56:40.241Z,15.77
2023-04-03T03:57:43.097Z,17.20
2023-04-03T03:58:49.425Z,16.52
2023-04-03T03:59:54.023Z,16.08
2023-04-03T04:00:56.935Z,15.93
2023-04-03T04:02:00.262Z,15.95
2023-04-03T04:03:04.752Z,16.83
2023-04-03T04:04:08.626Z,16.42
2023-04-03T04:05:12.635Z,16.27
2023-04-03T04:06:21.170Z,14.57
2023-04-03T04:07:24.417Z,14.85
2023-04-03T04:08:27.988Z,15.25
2023-04-03T04:09:31.008Z,15.70
2023-04-03T04:10:34.807Z,16.42
2023-04-03T04:11:37.783Z,15.50
2023-04-03T04:12:40.739Z,15.68
2023-04-03T04:13:44.320Z,15.23
2023-04-03T04:14:49.278Z,16.15
2023-04-03T04:15:54.153Z,16.20
2023-04-03T04:16:57.731Z,15.55
2023-04-03T04:18:04.769Z,15.05
2023-04-03T04:19:09.131Z,15.15
2023-04-03T04:20:18.018Z,15.27
2023-04-03T04:21:21.917Z,15.52
2023-04-03T04:22:26.385Z,15.82
2023-04-03T04:23:31.458Z,15.32
2023-04-03T04:24:38.413Z,14.55
2023-04-03T04:25:45.055Z,15.32
2023-04-03T04:26:47.464Z,15.30
2023-04-03T04:27:52.067Z,15.40
2023-04-03T04:28:55.201Z,15.68
2023-04-03T04:29:59.349Z,15.45
2023-04-03T04:31:05.850Z,14.50
2023-04-03T04:32:08.400Z,15.10
2023-04-03T04:33:11.008Z,15.15
2023-04-03T04:34:14.655Z,15.63
2023-04-03T04:35:17.419Z,15.45
2023-04-03T04:36:22.399Z,15.60
2023-04-03T04:37:25.131Z,15.38
2023-04-03T04:38:29.683Z,15.50
2023-04-03T04:39:33.821Z,15.77
2023-04-03T04:40:36.509Z,15.68
2023-04-03T04:41:38.344Z,15.68
2023-04-03T04:42:41.358Z,14.65
2023-04-03T04:43:43.226Z,15.48
2023-04-03T04:44:46.285Z,15.32
2023-04-03T04:45:49.625Z,15.40
2023-04-03T04:46:54.759Z,15.65
2023-04-03T04:47:57.609Z,16.08
2023-04-03T04:49:01.038Z,17.05
2023-04-03T04:50:07.377Z,16.55
2023-04-03T04:51:09.784Z,17.08
2023-04-03T04:52:13.227Z,16.67
2023-04-03T04:53:19.285Z,15.85
2023-04-03T04:54:22.535Z,16.88
2023-04-03T04:55:29.566Z,16.33
2023-04-03T04:56:31.727Z,16.77
2023-04-03T04:57:35.764Z,16.38
2023-04-03T04:58:43.085Z,16.55
2023-04-03T04:59:45.049Z,16.30
2023-04-03T05:00:48.259Z,16.63
2023-04-03T05:01:51.076Z,18.00
2023-04-03T05:02:53.038Z,17.73
2023-04-03T05:03:55.502Z,16.40
2023-04-03T05:05:01.480Z,17.50
2023-04-03T05:06:09.376Z,17.35
2023-04-03T05:07:12.773Z,18.23
2023-04-03T05:08:14.985Z,17.65
2023-04-03T05:09:19.899Z,18.75
2023-04-03T05:10:23.250Z,18.70
2023-04-03T05:11:26.755Z,18.15
2023-04-03T05:12:30.335Z,18.10
2023-04-03T05:13:36.878Z,18.05
2023-04-03T05:14:40.030Z,19.50
2023-04-03T05:15:44.712Z,19.35
2023-04-03T05:16:47.739Z,18.13
2023-04-03T05:17:54.010Z,18.63
2023-04-03T05:18:57.671Z,18.70
2023-04-03T05:20:00.471Z,18.38
2023-04-03T05:21:04.479Z,18.88
2023-04-03T05:22:07.750Z,18.85
2023-04-03T05:23:12.695Z,18.60
2023-04-03T05:24:18.323Z,18.50
2023-04-03T05:25:23.211Z,19.33
2023-04-03T05:26:28.304Z,18.52
2023-04-03T05:27:32.108Z,19.63
2023-04-03T05:28:36.255Z,19.58
2023-04-03T05:29:45.280Z,19.50
2023-04-03T05:30:58.357Z,18.40
2023-04-03T05:32:06.439Z,19.27
2023-04-03T05:33:11.001Z,18.75
2023-04-03T05:34:20.288Z,19.15
2023-04-03T05:35:26.601Z,19.67
2023-04-03T05:36:45.735Z,19.90
2023-04-03T05:37:55.187Z,19.27
2023-04-03T05:38:57.847Z,19.95
2023-04-03T05:40:01.078Z,20.48
2023-04-03T05:41:03.118Z,20.95
2023-04-03T05:42:05.331Z,20.85
2023-04-03T05:43:07.296Z,20.58
2023-04-03T05:44:12.347Z,20.88
2023-04-03T05:45:14.596Z,20.70
2023-04-03T05:46:19.477Z,20.05
2023-04-03T05:47:25.108Z,20.20
2023-04-03T05:48:27.649Z,20.27
2023-04-03T05:49:30.841Z,21.10
2023-04-03T05:50:32.904Z,21.00
2023-04-03T05:51:40.239Z,20.77
2023-04-03T05:52:53.908Z,22.00
2023-04-03T05:54:17.294Z,21.67
2023-04-03T05:55:19.549Z,21.08
2023-04-03T05:56:21.484Z,20.20
2023-04-03T05:57:24.055Z,21.83
2023-04-03T05:58:29.533Z,21.75
2023-04-03T05:59:33.236Z,21.67
2023-04-03T06:00:38.169Z,21.35
2023-04-03T06:01:43.292Z,20.77
2023-04-03T06:02:46.862Z,21.45
2023-04-03T06:03:55.743Z,20.15
2023-04-03T06:05:02.224Z,22.02
2023-04-03T06:06:05.955Z,22.02
2023-04-03T06:07:13.732Z,22.60
2023-04-03T06:08:16.542Z,22.33
2023-04-03T06:09:27.084Z,22.02
2023-04-03T06:10:31.420Z,20.88
2023-04-03T06:11:37.231Z,22.45
2023-04-03T06:12:46.483Z,22.25
2023-04-03T06:13:49.008Z,23.17
2023-04-03T06:14:52.291Z,22.95
2023-04-03T06:15:58.024Z,23.02
2023-04-03T06:17:15.566Z,22.58
2023-04-03T06:18:18.827Z,23.35
2023-04-03T06:19:35.306Z,22.05
2023-04-03T06:20:41.157Z,22.30
2023-04-03T06:21:52.189Z,21.95
2023-04-03T06:22:56.154Z,23.20
2023-04-03T06:23:59.164Z,22.33
2023-04-03T06:25:02.749Z,23.52
2023-04-03T06:26:07.036Z,23.13
2023-04-03T06:27:12.609Z,22.35
2023-04-03T06:28:16.914Z,21.52
2023-04-03T06:30:44.203Z,22.23
2023-04-03T06:31:47.431Z,22.30
2023-04-03T06:32:55.349Z,21.58
2023-04-03T06:34:04.201Z,22.05
2023-04-03T06:35:11.780Z,20.48
2023-04-03T06:36:21.128Z,20.27
2023-04-03T06:38:31.788Z,21.23
2023-04-03T06:39:38.723Z,21.20
2023-04-03T06:44:20.421Z,22.15
2023-04-03T06:45:23.143Z,34.28
2023-04-03T06:46:29.524Z,23.15
2023-04-03T06:47:31.374Z,19.08
2023-04-03T06:48:33.341Z,20.10
2023-04-03T06:49:37.251Z,19.38
2023-04-03T06:51:51.885Z,18.90
2023-04-03T06:58:40.622Z,19.60
2023-04-03T07:25:16.290Z,21.48
2023-04-03T07:26:19.576Z,21.15
2023-04-03T07:27:21.810Z,22.20
2023-04-03T07:32:23.396Z,23.13
2023-04-03T07:33:25.688Z,22.98
2023-04-03T07:34:31.809Z,22.67
2023-04-03T07:35:34.124Z,22.15
2023-04-03T07:36:38.816Z,22.90
2023-04-03T07:37:41.146Z,21.33
2023-04-03T07:38:47.811Z,22.65
2023-04-03T07:39:50.253Z,22.70
2023-04-03T07:40:54.079Z,22.42
2023-04-03T07:41:59.984Z,23.23
2023-04-03T07:43:04.117Z,23.90
2023-04-03T07:44:13.745Z,23.55
2023-04-03T07:45:51.394Z,20.13
2023-04-03T09:31:30.285Z,22.85
2023-04-03T09:32:44.548Z,22.02
2023-04-03T09:34:52.844Z,19.67
2023-04-03T09:36:06.580Z,19.17
2023-04-03T09:37:44.783Z,17.52
2023-04-03T09:39:26.557Z,17.58
2023-04-03T09:45:27.759Z,18.23
2023-04-03T09:46:59.480Z,17.50
2023-04-03T09:48:22.806Z,19.02
2023-04-03T09:49:31.096Z,17.13
2023-04-03T09:50:43.508Z,17.73
2023-04-03T09:52:44.010Z,18.10
2023-04-03T09:55:47.313Z,18.33
2023-04-03T09:57:06.727Z,20.42
2023-04-03T09:58:42.596Z,18.10
2023-04-03T10:00:03.877Z,17.23
2023-04-03T10:01:39.447Z,17.92
2023-04-03T10:02:58.868Z,17.98
2023-04-03T10:04:41.976Z,17.42
2023-04-03T10:05:49.785Z,16.30
2023-04-03T10:06:58.389Z,18.98
2023-04-03T10:08:44.024Z,18.50
2023-04-03T10:10:00.316Z,19.40
2023-04-03T10:11:20.194Z,17.65
2023-04-03T10:12:30.641Z,18.23
2023-04-03T10:13:45.293Z,18.15
2023-04-03T10:15:02.446Z,17.65
2023-04-03T10:16:17.607Z,17.77
2023-04-03T10:18:04.365Z,17.75
2023-04-03T10:20:01.492Z,17.35
2023-04-03T10:22:06.982Z,16.58
2023-04-03T10:23:47.394Z,17.27
2023-04-03T10:25:25.798Z,16.35
2023-04-03T10:27:22.103Z,26.65
2023-04-03T10:29:14.849Z,16.92
2023-04-03T10:31:14.068Z,16.63
2023-04-03T10:33:06.089Z,17.75
2023-04-03T10:34:34.420Z,16.23
2023-04-03T10:36:23.349Z,16.63
2023-04-03T10:37:54.600Z,15.45
2023-04-03T10:39:23.299Z,16.92
2023-04-03T10:40:44.461Z,17.70
2023-04-03T10:42:17.315Z,17.23
2023-04-03T10:43:39.238Z,16.65
2023-04-03T10:45:11.802Z,16.40
2023-04-03T10:46:23.677Z,15.85
2023-04-03T10:48:02.918Z,15.18
2023-04-03T10:49:33.881Z,16.25
2023-04-03T10:51:40.602Z,14.85
2023-04-03T10:53:11.801Z,15.23
2023-04-03T10:54:29.394Z,15.77
2023-04-03T10:56:21.288Z,15.52
2023-04-03T10:58:15.651Z,16.13
2023-04-03T10:59:41.042Z,16.10
2023-04-03T11:00:57.354Z,16.60
2023-04-03T11:02:23.633Z,15.13
2023-04-03T11:05:57.547Z,15.40
2023-04-03T11:08:37.728Z,14.95
2023-04-03T11:10:05.073Z,15.52
2023-04-03T11:11:33.929Z,15.02
2023-04-03T11:12:57.500Z,15.57
2023-04-03T11:14:47.048Z,14.85
2023-04-03T11:15:57.195Z,13.63
2023-04-03T11:19:48.450Z,13.52
2023-04-03T11:21:22.807Z,13.55
2023-04-03T11:22:54.847Z,13.38
2023-04-03T11:24:35.750Z,13.23
2023-04-03T11:25:56.231Z,13.38
2023-04-03T11:27:19.215Z,14.00
2023-04-03T11:28:35.365Z,14.13
2023-04-03T11:29:51.992Z,13.75
2023-04-03T11:31:52.427Z,14.30
2023-04-03T11:33:04.804Z,13.82
2023-04-03T11:35:30.764Z,23.00
2023-04-03T11:37:08.834Z,14.27
2023-04-03T11:38:27.017Z,13.73
2023-04-03T11:39:37.219Z,11.57
2023-04-03T11:40:44.832Z,12.50
2023-04-03T11:41:51.779Z,12.07
2023-04-03T11:43:03.961Z,11.90
2023-04-03T11:44:27.794Z,11.30
2023-04-03T11:45:52.072Z,9.23
2023-04-03T11:46:58.432Z,9.80
2023-04-03T11:48:30.924Z,9.63
2023-04-03T11:50:11.151Z,10.32
2023-04-03T11:51:14.459Z,10.23
2023-04-03T11:52:49.598Z,9.98
2023-04-03T11:54:17.469Z,8.40
2023-04-03T11:55:32.628Z,9.38
2023-04-03T11:56:41.849Z,8.93
2023-04-03T11:58:00.212Z,9.57
2023-04-03T11:59:23.501Z,11.32
2023-04-03T12:00:49.189Z,10.27
2023-04-03T12:01:59.639Z,9.82
2023-04-03T12:03:24.196Z,9.85
2023-04-03T12:04:32.307Z,9.50
2023-04-03T12:05:39.408Z,9.90
2023-04-03T12:06:47.192Z,9.65
2023-04-03T12:08:46.941Z,10.63
2023-04-03T12:09:59.948Z,9.70
2023-04-03T12:11:15.074Z,10.27
2023-04-03T12:12:36.111Z,9.32
2023-04-03T12:13:43.469Z,10.43
2023-04-03T12:14:48.296Z,10.10
2023-04-03T12:15:54.819Z,9.60
2023-04-03T12:17:01.936Z,9.88
2023-04-03T12:18:41.204Z,9.50
2023-04-03T12:19:47.570Z,9.02
2023-04-03T12:21:10.546Z,8.43
2023-04-03T12:22:17.003Z,8.98
2023-04-03T12:23:34.365Z,8.68
2023-04-03T12:24:48.827Z,9.32
2023-04-03T12:25:52.799Z,8.93
2023-04-03T12:27:35.319Z,9.18
2023-04-03T12:28:40.916Z,9.52
2023-04-03T12:30:07.069Z,9.70
2023-04-03T12:31:11.968Z,9.75
2023-04-03T12:32:28.366Z,9.48
2023-04-03T12:34:09.071Z,10.82
2023-04-03T12:35:25.819Z,10.73
2023-04-03T12:36:41.138Z,10.75
2023-04-03T12:38:03.129Z,10.63
2023-04-03T12:39:28.314Z,11.00
2023-04-03T12:40:59.404Z,10.60
2023-04-03T12:42:54.790Z,11.70
2023-04-03T12:44:57.237Z,10.98
2023-04-03T12:46:52.199Z,10.82
2023-04-03T12:48:00.017Z,10.73
2023-04-03T12:49:33.809Z,10.98
2023-04-03T12:50:40.560Z,13.50
2023-04-03T12:51:52.417Z,15.07
2023-04-03T12:53:19.228Z,13.80
2023-04-03T12:54:33.119Z,11.55
2023-04-03T12:55:45.574Z,12.75
2023-04-03T12:57:27.309Z,11.80
2023-04-03T12:58:40.359Z,12.25
2023-04-03T12:59:47.693Z,12.23
2023-04-03T13:01:04.990Z,11.68
2023-04-03T13:02:32.354Z,12.25
2023-04-03T13:03:43.199Z,12.02
2023-04-03T13:04:49.210Z,12.32
2023-04-03T13:05:56.615Z,12.52
2023-04-03T13:07:20.666Z,12.10
2023-04-03T13:08:33.998Z,12.25
2023-04-03T13:09:59.915Z,12.15
2023-04-03T13:11:33.343Z,12.82
2023-04-03T13:13:10.534Z,13.60
2023-04-03T13:14:32.498Z,12.07
2023-04-03T13:15:50.691Z,12.57
2023-04-03T13:17:20.639Z,12.82
2023-04-03T13:18:44.592Z,12.45
2023-04-03T13:19:57.995Z,12.75
2023-04-03T13:21:14.118Z,11.63
2023-04-03T13:22:45.622Z,11.50
2023-04-03T13:24:03.546Z,12.57
2023-04-03T13:25:35.212Z,10.50
2023-04-03T13:26:47.834Z,10.23
2023-04-03T13:28:15.944Z,10.75
2023-04-03T13:29:36.290Z,9.73
2023-04-03T13:31:31.158Z,11.00
2023-04-03T13:32:48.765Z,16.23
2023-04-03T13:34:19.026Z,12.30
2023-04-03T13:35:52.983Z,11.48
2023-04-03T13:37:03.682Z,15.07
2023-04-03T13:38:49.652Z,11.30
2023-04-03T13:40:32.502Z,12.05
2023-04-03T13:41:52.204Z,13.10
2023-04-03T13:43:29.458Z,16.38
2023-04-03T13:44:49.379Z,13.35
2023-04-03T13:46:23.549Z,16.88
2023-04-03T13:47:27.912Z,11.88
2023-04-03T13:48:41.916Z,14.18
2023-04-03T13:49:47.766Z,16.35
2023-04-03T13:51:03.077Z,12.30
2023-04-03T13:52:30.436Z,13.45
2023-04-03T13:53:59.179Z,11.05
2023-04-03T13:55:35.968Z,10.63
2023-04-03T13:56:44.698Z,10.25
2023-04-03T13:58:03.832Z,10.38
2023-04-03T13:59:22.057Z,10.75
2023-04-03T14:00:53.387Z,10.48
2023-04-03T14:02:23.773Z,10.25
2023-04-03T14:03:30.615Z,12.98
2023-04-03T14:05:02.496Z,11.98
2023-04-03T14:06:24.163Z,12.00
2023-04-03T14:07:36.133Z,11.63
2023-04-03T14:08:57.278Z,12.77
2023-04-03T14:10:10.895Z,12.20
2023-04-03T14:11:29.669Z,19.30
2023-04-03T14:12:48.145Z,21.17
2023-04-03T14:16:15.870Z,12.65
2023-04-03T14:17:51.488Z,13.10
2023-04-03T14:19:39.798Z,12.68
2023-04-03T14:21:11.425Z,13.45
2023-04-03T14:24:06.562Z,13.95
2023-04-03T14:27:16.801Z,14.05
2023-04-03T14:30:57.334Z,13.90
2023-04-03T14:35:01.706Z,11.73
2023-04-03T14:36:31.962Z,12.20
2023-04-03T14:37:44.489Z,12.65
2023-04-03T14:39:05.463Z,11.07
2023-04-03T14:42:05.167Z,12.52
2023-04-03T14:43:21.113Z,12.15
2023-04-03T14:44:40.645Z,12.95
2023-04-03T14:45:53.987Z,12.75
2023-04-03T14:47:29.684Z,12.95
2023-04-03T14:48:51.530Z,12.38
2023-04-03T14:50:07.345Z,14.95
2023-04-03T14:51:27.121Z,12.90
2023-04-03T14:52:47.316Z,14.65
2023-04-03T14:53:52.840Z,13.05
2023-04-03T14:55:07.292Z,13.60
2023-04-03T14:56:46.243Z,16.25
2023-04-03T14:58:07.190Z,16.05
2023-04-03T14:59:31.860Z,14.52
2023-04-03T15:00:43.602Z,14.38
2023-04-03T15:02:23.588Z,14.02
2023-04-03T15:05:17.481Z,12.13
2023-04-03T15:06:36.342Z,15.93
2023-04-03T15:08:02.927Z,16.13
2023-04-03T15:09:41.257Z,12.02
2023-04-03T15:11:01.867Z,11.20
2023-04-03T15:12:35.074Z,14.25
2023-04-03T15:14:13.788Z,13.27
2023-04-03T15:17:25.376Z,13.40
2023-04-03T15:18:39.771Z,15.00
2023-04-03T15:19:59.640Z,12.88
2023-04-03T15:22:01.724Z,13.43
2023-04-03T15:23:17.905Z,15.05
2023-04-03T15:24:28.778Z,14.00
2023-04-03T15:25:40.665Z,12.75
2023-04-03T15:26:57.254Z,13.35
2023-04-03T15:28:09.613Z,13.00
2023-04-03T15:29:26.757Z,15.02
2023-04-03T15:30:36.737Z,15.52
2023-04-03T15:33:28.748Z,13.65
2023-04-03T15:35:24.155Z,20.52
2023-04-03T15:38:02.597Z,17.60
2023-04-03T19:27:04.013Z,17.98
2023-04-03T19:28:14.786Z,20.10
2023-04-03T19:29:28.843Z,18.20
2023-04-03T19:30:43.274Z,18.08
2023-04-03T19:31:52.760Z,17.23
2023-04-03T19:32:55.770Z,18.77
2023-04-03T19:34:01.186Z,18.38
2023-04-03T19:38:31.516Z,20.08
2023-04-03T19:40:11.382Z,19.48
2023-04-03T19:41:29.754Z,19.25
2023-04-03T19:42:56.430Z,19.58
2023-04-03T19:51:39.866Z,21.02
2023-04-03T19:52:58.742Z,20.33
2023-04-03T19:54:12.966Z,21.33
2023-04-03T19:58:10.735Z,20.17
2023-04-03T19:59:30.406Z,20.17
2023-04-03T20:00:56.648Z,21.15
2023-04-03T20:02:14.200Z,21.67
2023-04-03T20:03:27.959Z,21.42
2023-04-03T20:04:35.519Z,22.02
2023-04-03T20:05:39.853Z,22.00
2023-04-03T20:06:51.724Z,21.58
2023-04-03T20:08:06.089Z,21.42
2023-04-03T20:09:13.153Z,20.75
2023-04-03T20:10:25.906Z,21.10
2023-04-03T20:11:59.476Z,20.88
2023-04-03T20:13:11.883Z,20.95
2023-04-03T20:14:22.392Z,20.65
2023-04-03T20:15:44.230Z,21.42
2023-04-03T20:17:22.887Z,21.17
2023-04-03T20:18:53.424Z,20.17
2023-04-03T20:20:05.040Z,21.02
2023-04-03T20:22:56.564Z,20.58
2023-04-03T20:26:15.835Z,20.60
2023-04-03T20:27:30.286Z,20.92
2023-04-03T20:28:41.869Z,20.98
2023-04-03T20:29:55.486Z,20.95
2023-04-03T20:43:11.992Z,21.10
2023-04-03T20:44:19.646Z,20.83
2023-04-03T20:46:52.213Z,23.85
2023-04-03T23:40:02.698Z,19.83
2023-04-03T23:41:28.486Z,20.10
2023-04-03T23:42:47.745Z,19.48
2023-04-03T23:44:00.850Z,19.33
2023-04-03T23:45:51.455Z,20.77
2023-04-03T23:47:03.328Z,19.98
2023-04-03T23:48:33.468Z,19.80
